Time;durP1;ratioP1;P1;durP2;ratioP2;P2;SDS_P1;SDS_P2;PMS_P1;PMS_P2;Temp;Humidity;BMP_temperature;BMP_pressure;BME280_temperature;BME280_humidity;BME280_pressure;Samples;Min_cycle;Max_cycle;Signal;HPM_P1;HPM_P2
2023/03/20 00:01:25;;;;;;;28.65;12.33;;;;;;;4.72;76.44;100998.09;124558;1099;101943;-75
2023/03/20 00:03:56;;;;;;;32.00;12.60;;;;;;;4.66;76.72;100993.37;124168;1099;104230;-76
2023/03/20 00:06:29;;;;;;;31.10;14.03;;;;;;;4.63;76.52;100982.77;124421;1099;104348;-75
2023/03/20 00:09:01;;;;;;;28.00;12.57;;;;;;;4.61;76.35;100979.17;124228;1099;104731;-74
2023/03/20 00:11:35;;;;;;;28.57;12.27;;;;;;;4.60;77.13;100985.16;124372;1099;102168;-75
2023/03/20 00:14:09;;;;;;;30.62;12.25;;;;;;;4.57;76.58;100977.16;124310;1099;104386;-73
2023/03/20 00:16:43;;;;;;;27.13;12.30;;;;;;;4.56;76.34;100977.05;124619;1098;104076;-74
2023/03/20 00:19:18;;;;;;;26.80;12.30;;;;;;;4.57;76.37;100971.95;124719;1099;104176;-76
2023/03/20 00:21:50;;;;;;;28.93;13.27;;;;;;;4.60;76.42;100968.67;124263;1099;104163;-74
2023/03/20 00:24:21;;;;;;;28.57;12.40;;;;;;;4.61;76.63;100960.05;124328;1099;104232;-75
2023/03/20 00:26:54;;;;;;;32.13;12.93;;;;;;;4.59;76.34;100959.95;124635;1099;104271;-74
2023/03/20 00:29:26;;;;;;;29.90;12.75;;;;;;;4.56;76.21;100961.45;124245;1099;104453;-74
2023/03/20 00:31:58;;;;;;;29.80;12.97;;;;;;;4.52;76.35;100956.84;124997;1099;104172;-73
2023/03/20 00:34:31;;;;;;;30.80;13.13;;;;;;;4.53;76.92;100951.74;124404;1099;104290;-74
2023/03/20 00:37:02;;;;;;;28.70;12.67;;;;;;;4.54;76.24;100952.66;124319;1099;104270;-74
2023/03/20 00:39:34;;;;;;;29.20;12.60;;;;;;;4.56;76.89;100951.05;124714;1099;104271;-75
2023/03/20 00:42:07;;;;;;;30.07;13.80;;;;;;;4.55;76.72;100942.37;124482;1099;104369;-73
2023/03/20 00:44:44;;;;;;;29.40;12.67;;;;;;;4.57;76.91;100947.67;124260;1099;104245;-73
2023/03/20 00:47:19;;;;;;;29.77;13.40;;;;;;;4.60;76.96;100943.57;124203;1099;104294;-72
2023/03/20 00:49:53;;;;;;;30.00;12.83;;;;;;;4.65;76.36;100936.97;124628;1099;101836;-75
2023/03/20 00:52:25;;;;;;;31.25;12.98;;;;;;;4.71;76.69;100930.39;124757;1098;102339;-74
2023/03/20 00:54:56;;;;;;;30.37;13.10;;;;;;;4.72;76.35;100933.09;124654;1099;104191;-74
2023/03/20 00:57:30;;;;;;;28.20;12.80;;;;;;;4.74;76.71;100935.80;124775;1099;104057;-74
2023/03/20 01:00:05;;;;;;;29.63;13.33;;;;;;;4.77;76.64;100935.97;124645;1099;104724;-74
2023/03/20 01:02:36;;;;;;;28.17;12.97;;;;;;;4.79;77.17;100930.08;124344;1099;101858;-76
2023/03/20 01:05:09;;;;;;;29.03;13.27;;;;;;;4.82;77.03;100931.99;124587;1099;104201;-74
2023/03/20 01:07:40;;;;;;;31.07;12.97;;;;;;;4.84;76.40;100930.38;124293;1099;104166;-74
2023/03/20 01:10:13;;;;;;;27.87;12.37;;;;;;;4.84;76.69;100933.88;124530;1099;104184;-76
2023/03/20 01:12:46;;;;;;;28.27;12.37;;;;;;;4.85;76.57;100927.88;124413;1098;101811;-74
2023/03/20 01:15:21;;;;;;;30.60;13.80;;;;;;;4.85;76.56;100934.80;124598;1099;104201;-73
2023/03/20 01:17:52;;;;;;;30.67;13.47;;;;;;;4.84;76.64;100925.18;124684;1098;104274;-73
2023/03/20 01:20:26;;;;;;;32.13;13.80;;;;;;;4.84;76.36;100935.58;124464;1099;104205;-73
2023/03/20 01:22:58;;;;;;;29.77;12.40;;;;;;;4.86;76.47;100944.38;124517;1099;101977;-72
2023/03/20 01:25:29;;;;;;;28.50;12.40;;;;;;;4.86;76.63;100936.58;124635;1099;104211;-72
2023/03/20 01:28:01;;;;;;;30.50;13.17;;;;;;;4.86;77.21;100929.70;124707;1099;104280;-74
2023/03/20 01:30:33;;;;;;;28.30;12.90;;;;;;;4.88;76.52;100929.80;124232;1099;103934;-73
2023/03/20 01:33:12;;;;;;;28.47;12.70;;;;;;;4.89;77.12;100921.17;124416;1099;104277;-73
2023/03/20 01:35:45;;;;;;;30.73;12.60;;;;;;;4.88;76.62;100924.59;124186;1099;104176;-74
2023/03/20 01:38:21;;;;;;;31.55;13.30;;;;;;;4.85;76.85;100921.80;124491;1099;104270;-74
2023/03/20 01:40:57;;;;;;;31.13;13.23;;;;;;;4.84;77.00;100925.18;124298;1099;104221;-73
2023/03/20 01:43:30;;;;;;;26.30;12.03;;;;;;;4.85;77.25;100924.39;124363;1099;104303;-73
2023/03/20 01:46:16;;;;;;;27.73;12.50;;;;;;;4.86;76.74;100928.77;124189;1100;104246;-73
2023/03/20 01:49:24;;;;;;;28.33;13.23;;;;;;;4.84;76.92;100917.38;124571;1099;104246;-74
2023/03/20 01:51:57;;;;;;;29.27;12.17;;;;;;;4.85;76.83;100916.59;124245;1100;104278;-74
2023/03/20 01:54:34;;;;;;;28.30;12.50;;;;;;;4.84;76.48;100925.18;124200;1102;104326;-74
2023/03/20 01:57:17;;;;;;;26.40;12.53;;;;;;;4.82;76.71;100917.28;124240;1100;104175;-73
2023/03/20 01:59:52;;;;;;;28.73;12.63;;;;;;;4.83;76.69;100912.97;124154;1103;104326;-73
2023/03/20 02:02:30;;;;;;;28.27;13.27;;;;;;;4.81;77.10;100920.67;124200;1102;104258;-73
2023/03/20 02:05:06;;;;;;;27.97;13.03;;;;;;;4.80;76.80;100916.30;124166;1099;104262;-73
2023/03/20 02:07:40;;;;;;;27.00;12.13;;;;;;;4.77;76.80;100922.97;124275;1102;104261;-74
2023/03/20 02:10:14;;;;;;;;;;;;;;;4.75;76.95;100929.78;124190;1099;104243;-73
2023/03/20 02:13:00;;;;;;;29.30;11.83;;;;;;;4.75;76.95;100925.47;124348;1099;104329;-73
2023/03/20 02:15:35;;;;;;;27.63;11.90;;;;;;;4.74;76.57;100930.59;124269;1099;102035;-73
2023/03/20 02:18:19;;;;;;;29.80;13.00;;;;;;;4.75;76.81;100921.98;124232;1099;104297;-74
2023/03/20 02:21:13;;;;;;;29.57;12.70;;;;;;;4.77;76.81;100928.16;124333;1099;101992;-73
2023/03/20 02:24:16;;;;;;;30.15;12.98;;;;;;;4.73;77.13;100927.08;124276;1099;102134;-74
2023/03/20 02:27:05;;;;;;;26.70;12.43;;;;;;;4.73;76.87;100924.48;124175;1099;104242;-74
2023/03/20 02:30:05;;;;;;;28.27;13.17;;;;;;;4.73;76.81;100929.67;124262;1099;101952;-76
2023/03/20 02:33:23;;;;;;;30.50;13.70;;;;;;;4.72;77.08;100925.30;124249;1098;102297;-72
2023/03/20 02:36:38;;;;;;;28.83;13.10;;;;;;;4.73;77.24;100927.08;124081;1102;104296;-73
2023/03/20 02:39:27;;;;;;;26.93;12.95;;;;;;;4.75;76.95;100925.47;123909;1102;104473;-72
2023/03/20 02:42:05;;;;;;;28.00;12.97;;;;;;;4.73;77.21;100926.19;123997;1102;104358;-74
2023/03/20 02:44:44;;;;;;;30.27;13.37;;;;;;;4.72;77.20;100920.09;124116;1101;104214;-74
2023/03/20 02:47:21;;;;;;;29.17;13.97;;;;;;;4.72;76.74;100927.90;124306;1099;104182;-74
2023/03/20 02:50:02;;;;;;;33.47;13.07;;;;;;;4.73;76.81;100926.19;124337;1102;104392;-73
2023/03/20 02:52:42;;;;;;;31.53;14.50;;;;;;;4.73;77.61;100923.59;124406;1100;104172;-75
2023/03/20 02:55:21;;;;;;;31.17;14.73;;;;;;;4.72;77.38;100908.78;124419;1099;101877;-75
2023/03/20 02:58:02;;;;;;;30.03;14.87;;;;;;;4.70;77.56;100915.59;124418;1099;104204;-73
2023/03/20 03:00:39;;;;;;;30.10;14.10;;;;;;;4.68;76.95;100898.17;124389;1099;102428;-75
2023/03/20 03:03:17;;;;;;;30.90;13.83;;;;;;;4.66;76.87;100894.59;124387;1099;104240;-73
2023/03/20 03:05:54;;;;;;;30.30;14.63;;;;;;;4.64;77.55;100898.80;124267;1100;104189;-73
2023/03/20 03:08:28;;;;;;;30.30;14.03;;;;;;;4.61;77.37;100914.19;124328;1099;101978;-73
2023/03/20 03:11:05;;;;;;;32.60;14.67;;;;;;;4.61;77.49;100903.79;124261;1099;103417;-73
2023/03/20 03:13:41;;;;;;;30.73;15.60;;;;;;;4.61;77.54;100910.67;124194;1102;104178;-73
2023/03/20 03:16:17;;;;;;;33.23;15.63;;;;;;;4.61;77.04;100916.78;124232;1099;104257;-73
2023/03/20 03:18:54;;;;;;;30.10;15.03;;;;;;;4.63;77.14;100922.09;124307;1100;104194;-73
2023/03/20 03:21:27;;;;;;;30.90;15.27;;;;;;;4.64;77.27;100919.59;124155;1099;101970;-73
2023/03/20 03:23:58;;;;;;;31.70;15.27;;;;;;;4.65;77.21;100921.37;124177;1099;104265;-72
2023/03/20 03:26:34;;;;;;;34.23;15.37;;;;;;;4.68;77.21;100926.77;124220;1099;104176;-73
2023/03/20 03:29:12;;;;;;;31.77;15.57;;;;;;;4.70;77.08;100919.08;124221;1102;102089;-75
2023/03/20 03:31:44;;;;;;;30.77;14.93;;;;;;;4.71;77.40;100914.80;124284;1099;101973;-73
2023/03/20 03:34:19;;;;;;;31.40;14.47;;;;;;;4.72;77.01;100904.50;124206;1102;101839;-75
2023/03/20 03:36:59;;;;;;;30.70;15.00;;;;;;;4.74;77.31;100896.80;124225;1099;104246;-73
2023/03/20 03:39:40;;;;;;;33.67;14.93;;;;;;;4.75;77.27;100903.78;124218;1102;103719;-73
2023/03/20 03:42:19;;;;;;;31.77;14.77;;;;;;;4.76;77.47;100905.59;124222;1099;104188;-74
2023/03/20 03:45:00;;;;;;;32.10;15.55;;;;;;;4.74;77.26;100902.00;124244;1099;104285;-74
2023/03/20 03:47:37;;;;;;;31.67;15.60;;;;;;;4.73;77.08;100900.19;124240;1100;107561;-73
2023/03/20 03:50:14;;;;;;;31.57;14.93;;;;;;;4.71;76.80;100897.48;124318;1102;101883;-73
2023/03/20 03:52:47;;;;;;;31.17;15.80;;;;;;;4.72;77.31;100901.90;124308;1102;101900;-73
2023/03/20 03:55:25;;;;;;;33.00;15.73;;;;;;;4.72;77.09;100898.37;124316;1099;104275;-73
2023/03/20 03:58:16;;;;;;;33.33;16.57;;;;;;;4.73;77.37;100900.19;124205;1102;119125;-76
2023/03/20 04:00:50;;;;;;;33.77;16.33;;;;;;;4.73;76.92;100905.39;124239;1102;104261;-73
2023/03/20 04:03:25;;;;;;;32.90;16.27;;;;;;;4.73;77.26;100907.98;124281;1099;104179;-73
2023/03/20 04:05:58;;;;;;;33.77;16.80;;;;;;;4.73;77.12;100913.19;124364;1099;104217;-74
2023/03/20 04:08:29;;;;;;;;;;;;;;;4.73;77.56;100908.88;124370;1099;104325;-75
2023/03/20 04:11:00;;;;;;;36.37;16.50;;;;;;;4.73;77.43;100918.39;124528;1099;104294;-73
2023/03/20 04:13:31;;;;;;;36.07;17.57;;;;;;;4.72;77.51;100922.70;124295;1099;104342;-76
2023/03/20 04:16:03;;;;;;;32.95;15.70;;;;;;;4.73;77.22;100923.59;124365;1099;104230;-74
2023/03/20 04:18:34;;;;;;;33.67;16.37;;;;;;;4.71;77.72;100923.48;124225;1099;112111;-74
2023/03/20 04:21:07;;;;;;;33.33;16.37;;;;;;;4.74;77.71;100923.69;124512;1099;102773;-72
2023/03/20 04:23:38;;;;;;;33.50;16.07;;;;;;;4.74;77.51;100921.09;124270;1099;102021;-74
2023/03/20 04:26:10;;;;;;;39.30;18.40;;;;;;;4.74;77.40;100923.69;124243;1099;102189;-72
2023/03/20 04:28:41;;;;;;;35.60;17.93;;;;;;;4.73;77.23;100921.87;124254;1099;104303;-73
2023/03/20 04:31:24;;;;;;;34.40;16.87;;;;;;;4.74;77.25;100925.40;124731;1099;104185;-73
2023/03/20 04:34:01;;;;;;;36.40;17.77;;;;;;;4.74;77.74;100933.20;124711;1099;104230;-73
2023/03/20 04:36:49;;;;;;;39.90;17.23;;;;;;;4.73;77.65;100931.39;124543;1099;104169;-73
2023/03/20 04:39:21;;;;;;;36.63;16.20;;;;;;;4.73;77.32;100932.27;124271;1099;104371;-74
2023/03/20 04:41:53;;;;;;;37.83;16.87;;;;;;;4.72;77.43;100929.58;124284;1099;104236;-73
2023/03/20 04:44:24;;;;;;;32.00;15.37;;;;;;;4.70;77.90;100929.47;124271;1099;104219;-73
2023/03/20 04:46:56;;;;;;;37.13;17.77;;;;;;;4.70;77.98;100925.98;124273;1099;101970;-74
2023/03/20 04:49:28;;;;;;;37.10;17.07;;;;;;;4.70;77.30;100929.47;124177;1099;118503;-70
2023/03/20 04:51:59;;;;;;;37.93;17.80;;;;;;;4.73;78.05;100933.98;124656;1099;104169;-70
2023/03/20 04:54:42;;;;;;;39.60;18.17;;;;;;;4.74;77.93;100923.69;124367;1099;104335;-71
2023/03/20 04:57:14;;;;;;;42.80;18.97;;;;;;;4.78;77.75;100924.78;124472;1099;104200;-71
2023/03/20 04:59:46;;;;;;;36.77;17.60;;;;;;;4.81;78.03;100919.78;124260;1099;104242;-71
2023/03/20 05:02:17;;;;;;;35.77;17.23;;;;;;;4.84;78.02;100926.07;124366;1098;104249;-71
2023/03/20 05:04:48;;;;;;;37.27;17.47;;;;;;;4.86;77.94;100924.49;124493;1099;101916;-70
2023/03/20 05:07:20;;;;;;;37.90;19.23;;;;;;;4.88;77.66;100919.39;124225;1099;104261;-71
2023/03/20 05:09:55;;;;;;;38.63;19.80;;;;;;;4.91;77.44;100919.59;124493;1099;111622;-71
2023/03/20 05:12:28;;;;;;;41.07;20.87;;;;;;;4.91;77.72;100916.99;124701;1098;104274;-72
2023/03/20 05:15:14;;;;;;;41.50;20.97;;;;;;;4.93;77.70;100915.37;124313;1099;104160;-73
2023/03/20 05:17:54;;;;;;;42.67;20.50;;;;;;;4.94;78.12;100914.59;124656;1099;104306;-78
2023/03/20 05:20:29;;;;;;;48.97;21.97;;;;;;;4.96;77.87;100930.30;124429;1099;102038;-74
2023/03/20 05:23:07;;;;;;;46.53;21.90;;;;;;;4.99;77.62;100931.39;124255;1102;104262;-73
2023/03/20 05:25:55;;;;;;;41.03;20.17;;;;;;;5.03;77.71;100928.19;124343;1099;103653;-75
2023/03/20 05:28:29;;;;;;;41.40;19.97;;;;;;;5.07;77.75;100925.79;124297;1099;104280;-74
2023/03/20 05:31:21;;;;;;;45.05;21.15;;;;;;;5.12;78.00;100926.98;124290;1100;104185;-72
2023/03/20 05:34:21;;;;;;;47.73;23.03;;;;;;;5.13;77.86;100928.79;124333;1102;104248;-72
2023/03/20 05:37:10;;;;;;;47.60;22.10;;;;;;;5.11;78.17;100932.97;124386;1099;104305;-75
2023/03/20 05:40:16;;;;;;;45.03;22.13;;;;;;;5.11;78.25;100925.16;124536;1099;104246;-74
2023/03/20 05:42:59;;;;;;;43.07;20.90;;;;;;;5.16;78.03;100926.39;124326;1099;102674;-75
2023/03/20 05:45:56;;;;;;;42.40;19.43;;;;;;;5.22;78.30;100930.27;124407;1099;104197;-75
2023/03/20 05:48:37;;;;;;;41.87;19.23;;;;;;;5.27;78.02;100929.67;124790;1099;104286;-75
2023/03/20 05:51:31;;;;;;;42.63;18.83;;;;;;;5.32;78.43;100934.34;124366;1099;110899;-72
2023/03/20 05:54:35;;;;;;;37.47;18.87;;;;;;;5.35;78.25;100933.66;124748;1099;104532;-75
2023/03/20 05:57:27;;;;;;;39.45;18.90;;;;;;;5.37;78.10;100927.72;124348;1099;104201;-74
2023/03/20 06:00:09;;;;;;;39.87;17.87;;;;;;;5.39;78.08;100928.75;124718;1099;102821;-76
2023/03/20 06:02:59;;;;;;;40.07;18.90;;;;;;;5.44;78.16;100930.72;124551;1099;104299;-76
2023/03/20 06:05:49;;;;;;;37.50;18.17;;;;;;;5.47;78.11;100925.70;125007;1099;104214;-76
2023/03/20 06:08:21;;;;;;;42.45;18.90;;;;;;;5.51;78.38;100935.52;124609;1099;104251;-75
2023/03/20 06:10:53;;;;;;;42.90;18.90;;;;;;;5.57;78.26;100934.19;124614;1099;104239;-75
2023/03/20 06:13:24;;;;;;;39.90;17.67;;;;;;;5.60;78.27;100938.70;124539;1099;104268;-79
2023/03/20 06:15:56;;;;;;;39.53;17.63;;;;;;;5.63;78.00;100946.70;124922;1099;102162;-79
2023/03/20 06:18:30;;;;;;;36.37;17.50;;;;;;;5.66;78.12;100944.29;124862;1099;104259;-80
2023/03/20 06:21:06;;;;;;;36.20;16.87;;;;;;;5.72;78.37;100941.19;125022;1099;102890;-72
2023/03/20 06:23:38;;;;;;;39.83;19.17;;;;;;;5.73;78.25;100949.09;125234;1099;104213;-75
2023/03/20 06:26:10;;;;;;;39.33;17.13;;;;;;;5.70;77.91;100946.30;125219;1099;104195;-73
2023/03/20 06:28:53;;;;;;;39.57;19.43;;;;;;;5.74;78.13;100944.77;124804;1099;102739;-77
2023/03/20 06:31:26;;;;;;;;;;;;;;;5.77;77.84;100947.56;124864;1099;102619;-78
2023/03/20 06:33:57;;;;;;;43.23;18.87;;;;;;;5.79;77.92;100943.34;124718;1099;104291;-78
2023/03/20 06:36:29;;;;;;;43.27;18.40;;;;;;;5.81;78.09;100944.33;124566;1099;104747;-77
2023/03/20 06:39:06;;;;;;;45.03;19.47;;;;;;;5.82;77.78;100947.85;124787;1099;103128;-83
2023/03/20 06:41:38;;;;;;;39.53;18.87;;;;;;;5.85;78.01;100948.04;124984;1099;104252;-78
2023/03/20 06:44:11;;;;;;;43.35;19.48;;;;;;;5.84;78.05;100944.52;124663;1099;104335;-74
2023/03/20 06:47:12;;;;;;;40.10;17.67;;;;;;;5.92;77.87;100943.30;124585;1102;103265;-78
2023/03/20 06:49:44;;;;;;;33.00;15.20;;;;;;;5.94;77.80;100946.00;124747;1102;104389;-73
2023/03/20 06:52:17;;;;;;;31.73;15.07;;;;;;;5.99;77.85;100942.00;124219;1102;104192;-72
2023/03/20 06:54:49;;;;;;;;;;;;;;;6.04;77.26;100948.38;124947;1099;103508;-79
2023/03/20 06:57:21;;;;;;;32.33;14.33;;;;;;;5.95;77.27;100952.98;124734;1098;104176;-80
2023/03/20 06:59:56;;;;;;;34.75;15.70;;;;;;;5.96;77.62;100954.80;124809;1099;102955;-75
2023/03/20 07:02:27;;;;;;;32.47;14.57;;;;;;;6.00;77.63;100950.70;124911;1102;102937;-74
2023/03/20 07:04:59;;;;;;;35.57;14.30;;;;;;;6.02;77.15;100947.40;124366;1099;102047;-73
2023/03/20 07:07:33;;;;;;;33.05;14.90;;;;;;;6.04;77.19;100947.49;124970;1099;103749;-80
2023/03/20 07:10:08;;;;;;;37.00;15.40;;;;;;;6.07;77.38;100948.56;124527;1099;104224;-79
2023/03/20 07:12:41;;;;;;;34.60;14.27;;;;;;;6.11;77.33;100955.78;124916;1102;102519;-74
2023/03/20 07:15:19;;;;;;;34.40;15.07;;;;;;;6.15;77.27;100963.78;124855;1102;104260;-75
2023/03/20 07:17:51;;;;;;;34.10;14.33;;;;;;;6.17;77.42;100960.47;124809;1102;104290;-76
2023/03/20 07:20:27;;;;;;;31.53;14.80;;;;;;;6.23;77.14;100959.92;124810;1102;103331;-78
2023/03/20 07:23:01;;;;;;;34.00;14.75;;;;;;;6.31;77.51;100953.48;124520;1099;102054;-73
2023/03/20 07:25:40;;;;;;;35.63;15.33;;;;;;;6.36;77.50;100944.23;124546;1099;104169;-74
2023/03/20 07:28:13;;;;;;;31.93;16.17;;;;;;;6.44;77.46;100945.57;124532;1099;104310;-73
2023/03/20 07:30:51;;;;;;;33.30;15.87;;;;;;;6.47;77.37;100942.27;124391;1102;102678;-73
2023/03/20 07:33:24;;;;;;;32.50;15.07;;;;;;;6.51;77.50;100936.39;124324;1099;104172;-74
2023/03/20 07:35:58;;;;;;;35.05;16.52;;;;;;;6.55;77.48;100937.50;124318;1099;104169;-78
2023/03/20 07:38:30;;;;;;;33.38;15.83;;;;;;;6.53;76.69;100940.02;124559;1102;104182;-75
2023/03/20 07:41:12;;;;;;;37.20;16.07;;;;;;;6.56;77.11;100937.59;124252;1098;104284;-76
2023/03/20 07:43:46;;;;;;;33.90;15.93;;;;;;;6.61;77.30;100932.65;124213;1099;102652;-76
2023/03/20 07:46:36;;;;;;;31.45;14.75;;;;;;;6.65;77.02;100945.95;124448;1099;104197;-74
2023/03/20 07:49:08;;;;;;;38.70;16.37;;;;;;;6.71;77.10;100945.39;124118;1099;104239;-74
2023/03/20 07:51:39;;;;;;;33.80;15.57;;;;;;;6.77;76.87;100945.75;124350;1099;102322;-74
2023/03/20 07:54:15;;;;;;;37.30;17.30;;;;;;;6.79;76.85;100941.55;124203;1099;104218;-75
2023/03/20 07:56:47;;;;;;;36.20;16.77;;;;;;;6.81;76.81;100937.30;124484;1099;104245;-75
2023/03/20 07:59:19;;;;;;;32.83;16.27;;;;;;;6.84;76.43;100940.09;124161;1099;104248;-73
2023/03/20 08:01:51;;;;;;;42.43;16.87;;;;;;;6.86;76.68;100940.18;124314;1099;102992;-75
2023/03/20 08:04:24;;;;;;;34.53;16.23;;;;;;;6.90;76.68;100942.13;124411;1099;104192;-78
2023/03/20 08:06:57;;;;;;;33.37;15.10;;;;;;;6.91;76.25;100943.94;124768;1099;101978;-75
2023/03/20 08:09:31;;;;;;;33.93;16.10;;;;;;;6.88;76.25;100955.92;124401;1099;104313;-74
2023/03/20 08:12:04;;;;;;;31.57;15.67;;;;;;;6.91;76.24;100948.27;124182;1099;102460;-73
2023/03/20 08:14:37;;;;;;;31.03;14.80;;;;;;;6.97;76.33;100949.52;124362;1099;102064;-73
2023/03/20 08:17:08;;;;;;;30.95;15.48;;;;;;;7.04;76.39;100949.86;124443;1099;101840;-74
2023/03/20 08:19:44;;;;;;;34.33;16.07;;;;;;;7.07;76.07;100948.31;124410;1099;102251;-76
2023/03/20 08:22:20;;;;;;;35.20;17.77;;;;;;;7.14;76.17;100950.47;124707;1099;104727;-75
2023/03/20 08:24:51;;;;;;;36.87;18.07;;;;;;;7.17;76.01;100961.09;124224;1099;104310;-74
2023/03/20 08:27:25;;;;;;;33.07;16.03;;;;;;;7.14;75.97;100958.30;124306;1099;104235;-75
2023/03/20 08:30:00;;;;;;;35.77;18.03;;;;;;;7.10;75.93;100960.66;124241;1099;103674;-74
2023/03/20 08:32:32;;;;;;;35.40;16.70;;;;;;;7.12;76.26;100959.94;124200;1099;105639;-78
2023/03/20 08:35:04;;;;;;;40.83;18.60;;;;;;;7.11;75.40;100958.13;124274;1099;104357;-75
2023/03/20 08:37:40;;;;;;;35.97;19.37;;;;;;;7.12;76.11;100953.80;125789;1098;102088;-74
2023/03/20 08:40:13;;;;;;;41.58;18.90;;;;;;;7.11;75.78;100945.08;124581;1099;104169;-73
2023/03/20 08:42:45;;;;;;;35.17;18.37;;;;;;;7.16;75.69;100945.34;124640;1099;102087;-71
2023/03/20 08:45:16;;;;;;;38.17;18.30;;;;;;;7.19;75.71;100949.02;124184;1099;104217;-73
2023/03/20 08:47:50;;;;;;;37.17;18.10;;;;;;;7.23;75.79;100942.28;124119;1099;104297;-72
2023/03/20 08:50:21;;;;;;;37.87;17.80;;;;;;;7.29;75.73;100949.53;124163;1099;102306;-72
2023/03/20 08:52:57;;;;;;;34.73;17.60;;;;;;;7.32;75.89;100950.62;125650;1098;101820;-75
2023/03/20 08:55:32;;;;;;;38.07;17.73;;;;;;;7.32;75.45;100947.09;124232;1099;104165;-80
2023/03/20 08:58:12;;;;;;;35.87;17.63;;;;;;;7.37;75.69;100933.50;124371;1099;104197;-73
2023/03/20 09:00:45;;;;;;;42.43;19.07;;;;;;;7.46;75.80;100932.20;124289;1099;104175;-75
2023/03/20 09:03:19;;;;;;;39.90;19.67;;;;;;;7.53;75.31;100932.62;124441;1099;104175;-75
2023/03/20 09:05:52;;;;;;;38.97;19.13;;;;;;;7.59;75.30;100932.07;124508;1099;102123;-79
2023/03/20 09:08:24;;;;;;;36.13;18.43;;;;;;;7.63;75.35;100930.52;124584;1099;102071;-75
2023/03/20 09:10:55;;;;;;;35.93;17.83;;;;;;;7.66;75.33;100934.18;125158;1099;102287;-75
2023/03/20 09:13:27;;;;;;;34.50;17.17;;;;;;;7.72;75.25;100938.85;124991;1099;101917;-75
2023/03/20 09:15:58;;;;;;;36.63;17.23;;;;;;;7.78;74.99;100938.30;124585;1099;104217;-79
2023/03/20 09:18:42;;;;;;;32.17;16.27;;;;;;;7.79;74.83;100933.16;124952;1099;102105;-81
2023/03/20 09:21:14;;;;;;;34.30;17.37;;;;;;;7.84;75.09;100938.63;124641;1099;104338;-74
2023/03/20 09:23:46;;;;;;;39.10;17.20;;;;;;;7.83;74.46;100934.20;124392;1099;104262;-83
2023/03/20 09:26:17;;;;;;;39.00;18.03;;;;;;;7.83;74.55;100935.09;124182;1099;104342;-73
2023/03/20 09:28:49;;;;;;;34.03;17.47;;;;;;;7.90;74.90;100932.00;124150;1102;104211;-73
2023/03/20 09:31:24;;;;;;;39.47;17.17;;;;;;;7.94;74.72;100925.22;124384;1097;104281;-73
2023/03/20 09:33:57;;;;;;;41.80;18.10;;;;;;;7.97;74.03;100934.95;124338;1099;104271;-75
2023/03/20 09:36:29;;;;;;;38.57;16.70;;;;;;;7.96;74.21;100933.14;124338;1099;104277;-74
2023/03/20 09:39:01;;;;;;;37.50;18.13;;;;;;;7.91;74.63;100936.39;124177;1099;104194;-75
2023/03/20 09:41:35;;;;;;;36.77;17.60;;;;;;;7.87;73.86;100933.56;124299;1099;101852;-75
2023/03/20 09:44:19;;;;;;;33.90;16.83;;;;;;;7.89;74.57;100924.97;125600;1099;104220;-74
2023/03/20 09:47:08;;;;;;;37.25;16.97;;;;;;;7.85;73.60;100924.73;124405;1099;104220;-76
2023/03/20 09:49:52;;;;;;;34.93;16.93;;;;;;;7.83;73.17;100921.14;124362;1099;102483;-75
2023/03/20 09:52:27;;;;;;;35.63;17.07;;;;;;;7.85;73.66;100920.42;124327;1099;104210;-75
2023/03/20 09:55:02;;;;;;;33.47;16.90;;;;;;;7.93;74.21;100912.95;124301;1099;104248;-74
2023/03/20 09:57:39;;;;;;;35.80;16.30;;;;;;;8.07;73.86;100908.45;124261;1102;104389;-74
2023/03/20 10:00:20;;;;;;;34.70;16.53;;;;;;;8.19;73.92;100900.37;124346;1099;104230;-75
2023/03/20 10:02:56;;;;;;;35.57;17.43;;;;;;;8.28;73.53;100896.50;124490;1099;104354;-78
2023/03/20 10:05:32;;;;;;;32.13;16.03;;;;;;;8.35;73.89;100897.73;124547;1099;102537;-75
2023/03/20 10:08:06;;;;;;;32.67;16.17;;;;;;;8.41;73.55;100897.13;126074;1098;104136;-74
2023/03/20 10:10:52;;;;;;;34.70;16.53;;;;;;;8.44;73.64;100886.86;124654;1099;104206;-77
2023/03/20 10:13:40;;;;;;;34.60;17.50;;;;;;;8.49;73.08;100882.74;125076;1099;103952;-76
2023/03/20 10:16:19;;;;;;;34.90;16.63;;;;;;;8.61;73.14;100888.59;124398;1099;104424;-74
2023/03/20 10:19:00;;;;;;;30.27;16.03;;;;;;;8.72;73.72;100875.16;124751;1099;104248;-77
2023/03/20 10:21:42;;;;;;;32.60;16.43;;;;;;;8.80;73.30;100885.19;124553;1099;104188;-76
2023/03/20 10:24:22;;;;;;;32.53;16.03;;;;;;;8.81;72.60;100883.45;124727;1099;104284;-75
2023/03/20 10:26:55;;;;;;;32.60;16.73;;;;;;;8.86;72.65;100881.95;124755;1099;104203;-75
2023/03/20 10:29:33;;;;;;;34.73;16.93;;;;;;;8.85;72.67;100872.33;124956;1099;104217;-74
2023/03/20 10:32:25;;;;;;;33.13;16.27;;;;;;;8.89;72.57;100869.02;124480;1099;104287;-74
2023/03/20 10:35:09;;;;;;;34.93;16.40;;;;;;;8.97;72.57;100859.80;124631;1099;104197;-74
2023/03/20 10:37:53;;;;;;;32.93;15.93;;;;;;;9.07;71.88;100860.24;124600;1100;104307;-75
2023/03/20 10:40:32;;;;;;;33.30;15.53;;;;;;;9.18;72.73;100854.70;124773;1099;105686;-76
2023/03/20 10:43:16;;;;;;;32.33;15.77;;;;;;;9.28;72.26;100853.40;125009;1099;102322;-75
2023/03/20 10:45:54;;;;;;;29.83;15.10;;;;;;;9.37;72.63;100850.33;124781;1098;101830;-79
2023/03/20 10:48:31;;;;;;;29.77;15.67;;;;;;;9.45;71.93;100848.06;125074;1099;102168;-74
2023/03/20 10:51:05;;;;;;;32.47;15.37;;;;;;;9.45;71.08;100848.06;125249;1099;102029;-75
2023/03/20 10:53:44;;;;;;;30.80;15.93;;;;;;;9.47;71.48;100843.77;125057;1099;104224;-76
2023/03/20 10:56:36;;;;;;;30.30;15.20;;;;;;;9.41;71.27;100828.70;125136;1098;102066;-77
2023/03/20 11:02:36;;;;;;;27.00;14.10;;;;;;;9.63;71.52;100827.02;125538;1099;104242;-72
2023/03/20 11:08:53;;;;;;;31.23;15.17;;;;;;;9.56;71.41;100817.11;125363;1100;103628;-76
2023/03/20 11:11:38;;;;;;;29.97;15.30;;;;;;;9.52;70.47;100805.58;125107;1102;102151;-78
2023/03/20 11:14:21;;;;;;;29.90;14.93;;;;;;;9.50;70.77;100804.62;125421;1099;104261;-82
2023/03/20 11:17:20;;;;;;;29.57;15.57;;;;;;;9.49;70.94;100808.97;125139;1099;102543;-82
2023/03/20 11:20:04;;;;;;;30.57;14.53;;;;;;;9.54;70.88;100796.08;124785;1100;104172;-72
2023/03/20 11:22:47;;;;;;;30.33;13.67;;;;;;;9.58;70.85;100799.72;116992;1099;10001514;-79
2023/03/20 11:25:32;;;;;;;27.67;13.97;;;;;;;9.59;70.80;100789.31;125460;1099;104172;-74
2023/03/20 11:28:21;;;;;;;32.53;14.90;;;;;;;9.58;70.43;100795.38;125024;1099;104242;-78
2023/03/20 11:31:00;;;;;;;30.30;15.37;;;;;;;9.53;70.19;100794.28;125020;1099;102398;-73
2023/03/20 11:33:33;;;;;;;29.73;15.27;;;;;;;9.47;68.96;100792.30;125393;1099;102685;-73
2023/03/20 11:36:13;;;;;;;28.73;14.97;;;;;;;9.41;69.64;100791.11;125311;1099;104184;-72
2023/03/20 11:38:50;;;;;;;31.30;15.60;;;;;;;9.41;69.95;100786.79;124570;1099;104233;-73
2023/03/20 11:41:29;;;;;;;31.07;16.13;;;;;;;9.40;69.34;100784.10;125001;1102;102155;-74
2023/03/20 11:44:40;;;;;;;34.27;16.70;;;;;;;9.47;69.68;100775.67;125023;1099;103053;-78
2023/03/20 11:48:08;;;;;;;27.73;14.60;;;;;;;9.64;69.44;100766.82;125386;1098;102811;-76
2023/03/20 11:51:41;;;;;;;28.70;15.10;;;;;;;9.80;69.27;100763.16;124795;1102;103342;-75
2023/03/20 12:05:36;;;;;;;35.10;15.77;;;;;;;9.89;68.84;100754.78;124163;1102;104191;-73
2023/03/20 12:08:18;;;;;;;28.50;14.73;;;;;;;9.94;68.68;100761.13;123951;1105;104303;-75